sensor_id;sensor_type;location;lat;lon;timestamp;pressure;altitude;pressure_sealevel;temperature;humidity
21817;BME280;13247;47.504;7.382;2023-04-01T00:01:48;96354.19;;;9.91;100.00
21817;BME280;13247;47.504;7.382;2023-04-01T00:04:32;96349.25;;;10.03;100.00
21817;BME280;13247;47.504;7.382;2023-04-01T00:07:17;96354.78;;;9.97;100.00
21817;BME280;13247;47.504;7.382;2023-04-01T00:10:02;96348.09;;;10.10;100.00
21817;BME280;13247;47.504;7.382;2023-04-01T00:12:47;96361.56;;;10.01;100.00
21817;BME280;13247;47.504;7.382;2023-04-01T00:15:32;96347.00;;;9.96;100.00
21817;BME280;13247;47.504;7.382;2023-04-01T00:18:17;96341.16;;;10.09;100.00
21817;BME280;13247;47.504;7.382;2023-04-01T00:21:02;96340.78;;;9.98;100.00
21817;BME280;13247;47.504;7.382;2023-04-01T00:23:47;96327.41;;;10.04;100.00
21817;BME280;13247;47.504;7.382;2023-04-01T00:26:32;96351.75;;;10.06;100.00
21817;BME280;13247;47.504;7.382;2023-04-01T00:29:17;96331.84;;;10.02;100.00
21817;BME280;13247;47.504;7.382;2023-04-01T00:32:02;96327.31;;;10.06;100.00
21817;BME280;13247;47.504;7.382;2023-04-01T00:34:50;96331.78;;;10.04;100.00
21817;BME280;13247;47.504;7.382;2023-04-01T00:37:36;96340.63;;;10.01;100.00
21817;BME280;13247;47.504;7.382;2023-04-01T00:40:39;96331.97;;;9.99;100.00
21817;BME280;13247;47.504;7.382;2023-04-01T00:43:24;96334.19;;;9.90;100.00
21817;BME280;13247;47.504;7.382;2023-04-01T00:46:09;96325.59;;;9.86;100.00
21817;BME280;13247;47.504;7.382;2023-04-01T00:48:55;96324.91;;;10.01;100.00
21817;BME280;13247;47.504;7.382;2023-04-01T00:51:41;96322.56;;;9.95;100.00
21817;BME280;13247;47.504;7.382;2023-04-01T00:54:29;96333.97;;;9.94;100.00
21817;BME280;13247;47.504;7.382;2023-04-01T01:00:09;96324.28;;;9.96;100.00
21817;BME280;13247;47.504;7.382;2023-04-01T01:02:54;96315.78;;;9.91;100.00
21817;BME280;13247;47.504;7.382;2023-04-01T01:08:52;96326.41;;;9.88;100.00
21817;BME280;13247;47.504;7.382;2023-04-01T01:12:13;96316.91;;;9.86;100.00
21817;BME280;13247;47.504;7.382;2023-04-01T01:27:49;96320.16;;;9.52;100.00
21817;BME280;13247;47.504;7.382;2023-04-01T01:31:16;96326.44;;;9.48;100.00
21817;BME280;13247;47.504;7.382;2023-04-01T01:34:21;96325.97;;;9.59;100.00
21817;BME280;13247;47.504;7.382;2023-04-01T01:37:14;96310.09;;;9.43;100.00
21817;BME280;13247;47.504;7.382;2023-04-01T01:40:04;96302.16;;;9.44;100.00
21817;BME280;13247;47.504;7.382;2023-04-01T01:42:52;96304.66;;;9.47;100.00
21817;BME280;13247;47.504;7.382;2023-04-01T01:45:45;96312.44;;;9.49;100.00
21817;BME280;13247;47.504;7.382;2023-04-01T01:48:33;96294.06;;;9.30;100.00
21817;BME280;13247;47.504;7.382;2023-04-01T01:51:21;96299.03;;;9.36;100.00
21817;BME280;13247;47.504;7.382;2023-04-01T01:54:06;96300.09;;;9.32;100.00
21817;BME280;13247;47.504;7.382;2023-04-01T01:56:55;96300.00;;;9.34;100.00
21817;BME280;13247;47.504;7.382;2023-04-01T01:59:44;96299.16;;;9.33;100.00
21817;BME280;13247;47.504;7.382;2023-04-01T02:02:31;96305.97;;;9.37;100.00
21817;BME280;13247;47.504;7.382;2023-04-01T02:05:22;96303.69;;;9.30;100.00
21817;BME280;13247;47.504;7.382;2023-04-01T02:08:26;96301.56;;;9.38;100.00
21817;BME280;13247;47.504;7.382;2023-04-01T02:11:16;96302.44;;;9.38;100.00
21817;BME280;13247;47.504;7.382;2023-04-01T02:14:11;96297.19;;;9.38;100.00
21817;BME280;13247;47.504;7.382;2023-04-01T02:19:53;96293.91;;;9.33;100.00
21817;BME280;13247;47.504;7.382;2023-04-01T02:22:52;96280.66;;;9.38;100.00
21817;BME280;13247;47.504;7.382;2023-04-01T02:25:40;96288.13;;;9.27;100.00
21817;BME280;13247;47.504;7.382;2023-04-01T02:28:27;96285.28;;;9.31;100.00
21817;BME280;13247;47.504;7.382;2023-04-01T02:31:13;96286.28;;;9.29;100.00
21817;BME280;13247;47.504;7.382;2023-04-01T02:33:59;96269.91;;;9.44;100.00
21817;BME280;13247;47.504;7.382;2023-04-01T02:36:44;96277.72;;;9.25;100.00
21817;BME280;13247;47.504;7.382;2023-04-01T02:39:29;96280.28;;;9.27;100.00
21817;BME280;13247;47.504;7.382;2023-04-01T02:42:14;96298.19;;;9.36;100.00
21817;BME280;13247;47.504;7.382;2023-04-01T02:44:59;96315.44;;;9.40;100.00
21817;BME280;13247;47.504;7.382;2023-04-01T02:47:44;96329.19;;;9.45;100.00
21817;BME280;13247;47.504;7.382;2023-04-01T02:50:29;96360.31;;;9.31;100.00
21817;BME280;13247;47.504;7.382;2023-04-01T02:53:14;96347.13;;;9.12;100.00
21817;BME280;13247;47.504;7.382;2023-04-01T02:55:58;96322.38;;;9.01;100.00
21817;BME280;13247;47.504;7.382;2023-04-01T02:58:43;96327.47;;;9.04;100.00
21817;BME280;13247;47.504;7.382;2023-04-01T03:01:27;96324.44;;;8.93;100.00
21817;BME280;13247;47.504;7.382;2023-04-01T03:04:12;96331.31;;;8.95;100.00
21817;BME280;13247;47.504;7.382;2023-04-01T03:06:56;96315.63;;;8.95;100.00
21817;BME280;13247;47.504;7.382;2023-04-01T03:09:41;96311.00;;;9.02;100.00
21817;BME280;13247;47.504;7.382;2023-04-01T03:12:25;96313.84;;;8.96;100.00
21817;BME280;13247;47.504;7.382;2023-04-01T03:15:11;96323.03;;;9.06;100.00
21817;BME280;13247;47.504;7.382;2023-04-01T03:17:57;96328.97;;;9.09;100.00
21817;BME280;13247;47.504;7.382;2023-04-01T03:20:41;96327.00;;;8.94;100.00
21817;BME280;13247;47.504;7.382;2023-04-01T03:23:26;96329.31;;;9.02;100.00
21817;BME280;13247;47.504;7.382;2023-04-01T03:26:10;96332.31;;;9.13;100.00
21817;BME280;13247;47.504;7.382;2023-04-01T03:28:55;96323.59;;;9.12;100.00
21817;BME280;13247;47.504;7.382;2023-04-01T03:31:40;96330.63;;;9.12;100.00
21817;BME280;13247;47.504;7.382;2023-04-01T03:34:25;96317.53;;;9.12;100.00
21817;BME280;13247;47.504;7.382;2023-04-01T03:37:10;96325.31;;;9.13;100.00
21817;BME280;13247;47.504;7.382;2023-04-01T03:39:54;96323.69;;;9.11;100.00
21817;BME280;13247;47.504;7.382;2023-04-01T03:42:39;96328.72;;;9.15;100.00
21817;BME280;13247;47.504;7.382;2023-04-01T03:45:24;96348.25;;;9.07;100.00
21817;BME280;13247;47.504;7.382;2023-04-01T03:48:09;96333.69;;;9.01;100.00
21817;BME280;13247;47.504;7.382;2023-04-01T03:50:54;96343.16;;;9.04;100.00
21817;BME280;13247;47.504;7.382;2023-04-01T03:53:38;96339.38;;;8.89;100.00
21817;BME280;13247;47.504;7.382;2023-04-01T03:56:23;96329.06;;;8.86;100.00
21817;BME280;13247;47.504;7.382;2023-04-01T03:59:08;96326.38;;;8.88;100.00
21817;BME280;13247;47.504;7.382;2023-04-01T04:01:53;96328.88;;;8.91;100.00
21817;BME280;13247;47.504;7.382;2023-04-01T04:04:37;96333.09;;;8.73;100.00
21817;BME280;13247;47.504;7.382;2023-04-01T04:07:22;96334.75;;;8.76;100.00
21817;BME280;13247;47.504;7.382;2023-04-01T04:10:07;96321.78;;;8.73;100.00
21817;BME280;13247;47.504;7.382;2023-04-01T04:12:53;96329.59;;;8.74;100.00
21817;BME280;13247;47.504;7.382;2023-04-01T04:15:38;96329.00;;;8.66;100.00
21817;BME280;13247;47.504;7.382;2023-04-01T04:18:23;96325.44;;;8.68;100.00
21817;BME280;13247;47.504;7.382;2023-04-01T04:21:15;96323.50;;;8.74;100.00
21817;BME280;13247;47.504;7.382;2023-04-01T04:24:01;96340.03;;;8.74;100.00
21817;BME280;13247;47.504;7.382;2023-04-01T04:26:46;96331.34;;;8.74;100.00
21817;BME280;13247;47.504;7.382;2023-04-01T04:29:30;96322.63;;;8.73;100.00
21817;BME280;13247;47.504;7.382;2023-04-01T04:32:15;96328.22;;;8.86;100.00
21817;BME280;13247;47.504;7.382;2023-04-01T04:34:59;96332.59;;;8.85;100.00
21817;BME280;13247;47.504;7.382;2023-04-01T04:37:44;96320.09;;;8.93;100.00
21817;BME280;13247;47.504;7.382;2023-04-01T04:40:28;96310.44;;;8.94;100.00
21817;BME280;13247;47.504;7.382;2023-04-01T04:43:15;96316.59;;;8.93;100.00
21817;BME280;13247;47.504;7.382;2023-04-01T04:46:10;96309.03;;;8.87;100.00
21817;BME280;13247;47.504;7.382;2023-04-01T04:48:55;96323.00;;;8.86;100.00
21817;BME280;13247;47.504;7.382;2023-04-01T04:51:40;96314.00;;;8.93;100.00
21817;BME280;13247;47.504;7.382;2023-04-01T04:54:25;96314.84;;;8.93;100.00
21817;BME280;13247;47.504;7.382;2023-04-01T04:57:10;96317.13;;;9.01;100.00
21817;BME280;13247;47.504;7.382;2023-04-01T04:59:55;96300.00;;;8.94;100.00
21817;BME280;13247;47.504;7.382;2023-04-01T05:02:39;96289.50;;;8.95;100.00
21817;BME280;13247;47.504;7.382;2023-04-01T05:05:24;96307.91;;;8.92;100.00
21817;BME280;13247;47.504;7.382;2023-04-01T05:08:08;96300.94;;;8.93;100.00
21817;BME280;13247;47.504;7.382;2023-04-01T05:10:53;96305.19;;;8.95;100.00
21817;BME280;13247;47.504;7.382;2023-04-01T05:13:39;96296.34;;;8.98;100.00
21817;BME280;13247;47.504;7.382;2023-04-01T05:16:23;96291.31;;;8.93;100.00
21817;BME280;13247;47.504;7.382;2023-04-01T05:19:08;96293.63;;;8.79;100.00
21817;BME280;13247;47.504;7.382;2023-04-01T05:21:52;96293.16;;;8.91;100.00
21817;BME280;13247;47.504;7.382;2023-04-01T05:24:37;96301.00;;;8.91;100.00
21817;BME280;13247;47.504;7.382;2023-04-01T05:27:21;96308.75;;;8.93;100.00
21817;BME280;13247;47.504;7.382;2023-04-01T05:30:06;96303.53;;;8.93;100.00
21817;BME280;13247;47.504;7.382;2023-04-01T05:32:51;96309.66;;;8.92;100.00
21817;BME280;13247;47.504;7.382;2023-04-01T05:35:36;96303.16;;;9.02;100.00
21817;BME280;13247;47.504;7.382;2023-04-01T05:38:21;96304.97;;;9.00;100.00
21817;BME280;13247;47.504;7.382;2023-04-01T05:41:06;96315.97;;;9.08;100.00
21817;BME280;13247;47.504;7.382;2023-04-01T05:43:51;96308.41;;;9.02;100.00
21817;BME280;13247;47.504;7.382;2023-04-01T05:46:35;96298.38;;;9.11;100.00
21817;BME280;13247;47.504;7.382;2023-04-01T05:49:20;96294.19;;;9.07;100.00
21817;BME280;13247;47.504;7.382;2023-04-01T05:52:05;96299.50;;;9.06;100.00
21817;BME280;13247;47.504;7.382;2023-04-01T05:54:49;96310.06;;;9.03;100.00
21817;BME280;13247;47.504;7.382;2023-04-01T05:57:34;96317.22;;;9.19;100.00
21817;BME280;13247;47.504;7.382;2023-04-01T06:00:19;96317.34;;;9.16;100.00
21817;BME280;13247;47.504;7.382;2023-04-01T06:03:04;96326.09;;;9.15;100.00
21817;BME280;13247;47.504;7.382;2023-04-01T06:05:48;96328.31;;;9.04;100.00
21817;BME280;13247;47.504;7.382;2023-04-01T06:08:34;96321.91;;;9.11;100.00
21817;BME280;13247;47.504;7.382;2023-04-01T06:11:22;96325.25;;;9.15;100.00
21817;BME280;13247;47.504;7.382;2023-04-01T06:20:42;96323.50;;;9.15;100.00
21817;BME280;13247;47.504;7.382;2023-04-01T06:23:47;96322.81;;;9.10;100.00
21817;BME280;13247;47.504;7.382;2023-04-01T06:26:59;96325.91;;;9.20;100.00
21817;BME280;13247;47.504;7.382;2023-04-01T06:42:13;96338.28;;;9.16;100.00
21817;BME280;13247;47.504;7.382;2023-04-01T06:51:16;96326.34;;;9.29;100.00
21817;BME280;13247;47.504;7.382;2023-04-01T06:54:12;96327.22;;;9.30;100.00
21817;BME280;13247;47.504;7.382;2023-04-01T07:00:14;96310.63;;;9.31;100.00
21817;BME280;13247;47.504;7.382;2023-04-01T07:06:08;96324.16;;;9.40;100.00
21817;BME280;13247;47.504;7.382;2023-04-01T07:08:55;96326.25;;;9.32;100.00
21817;BME280;13247;47.504;7.382;2023-04-01T07:11:45;96328.94;;;9.31;100.00
21817;BME280;13247;47.504;7.382;2023-04-01T07:14:34;96321.09;;;9.31;100.00
21817;BME280;13247;47.504;7.382;2023-04-01T07:17:28;96327.81;;;9.36;100.00
21817;BME280;13247;47.504;7.382;2023-04-01T07:20:30;96332.25;;;9.34;100.00
21817;BME280;13247;47.504;7.382;2023-04-01T07:23:25;96333.72;;;9.41;100.00
21817;BME280;13247;47.504;7.382;2023-04-01T07:26:20;96339.91;;;9.39;100.00
21817;BME280;13247;47.504;7.382;2023-04-01T07:29:10;96338.00;;;9.42;100.00
21817;BME280;13247;47.504;7.382;2023-04-01T07:35:07;96352.81;;;9.43;100.00
21817;BME280;13247;47.504;7.382;2023-04-01T07:38:06;96366.00;;;9.40;100.00
21817;BME280;13247;47.504;7.382;2023-04-01T07:44:44;96365.16;;;9.40;100.00
21817;BME280;13247;47.504;7.382;2023-04-01T07:47:56;96369.28;;;9.45;100.00
21817;BME280;13247;47.504;7.382;2023-04-01T07:50:50;96368.94;;;9.53;100.00
21817;BME280;13247;47.504;7.382;2023-04-01T07:59:59;96365.44;;;9.54;100.00
21817;BME280;13247;47.504;7.382;2023-04-01T08:09:18;96376.03;;;9.71;100.00
21817;BME280;13247;47.504;7.382;2023-04-01T08:12:35;96371.69;;;9.70;100.00
21817;BME280;13247;47.504;7.382;2023-04-01T08:15:27;96360.63;;;9.84;100.00
21817;BME280;13247;47.504;7.382;2023-04-01T08:21:28;96375.28;;;9.88;100.00
21817;BME280;13247;47.504;7.382;2023-04-01T08:24:42;96379.56;;;9.90;100.00
21817;BME280;13247;47.504;7.382;2023-04-01T08:28:00;96387.19;;;9.95;100.00
21817;BME280;13247;47.504;7.382;2023-04-01T08:33:47;96392.03;;;10.04;100.00
21817;BME280;13247;47.504;7.382;2023-04-01T08:36:37;96394.44;;;10.08;100.00
21817;BME280;13247;47.504;7.382;2023-04-01T08:39:44;96395.94;;;10.14;100.00
21817;BME280;13247;47.504;7.382;2023-04-01T08:43:06;96388.63;;;10.22;100.00
21817;BME280;13247;47.504;7.382;2023-04-01T08:46:19;96371.00;;;10.25;100.00
21817;BME280;13247;47.504;7.382;2023-04-01T08:52:29;96377.38;;;10.39;100.00
21817;BME280;13247;47.504;7.382;2023-04-01T09:08:03;96371.91;;;10.62;100.00
21817;BME280;13247;47.504;7.382;2023-04-01T09:14:30;96385.16;;;10.59;100.00
21817;BME280;13247;47.504;7.382;2023-04-01T09:36:18;96416.31;;;10.27;100.00
21817;BME280;13247;47.504;7.382;2023-04-01T09:55:18;96406.63;;;10.48;100.00
21817;BME280;13247;47.504;7.382;2023-04-01T10:01:41;96397.19;;;10.63;100.00
21817;BME280;13247;47.504;7.382;2023-04-01T10:08:14;96398.75;;;10.67;100.00
21817;BME280;13247;47.504;7.382;2023-04-01T10:20:29;96401.41;;;11.38;100.00
21817;BME280;13247;47.504;7.382;2023-04-01T10:35:50;96419.13;;;11.16;100.00
21817;BME280;13247;47.504;7.382;2023-04-01T10:46:13;96437.84;;;11.09;100.00
21817;BME280;13247;47.504;7.382;2023-04-01T10:52:07;96435.44;;;11.04;100.00
21817;BME280;13247;47.504;7.382;2023-04-01T10:55:18;96428.22;;;10.90;100.00
21817;BME280;13247;47.504;7.382;2023-04-01T11:08:23;96411.28;;;10.97;100.00
21817;BME280;13247;47.504;7.382;2023-04-01T11:11:18;96412.44;;;11.28;100.00
21817;BME280;13247;47.504;7.382;2023-04-01T11:14:35;96408.66;;;11.50;100.00
21817;BME280;13247;47.504;7.382;2023-04-01T11:17:34;96407.38;;;11.59;100.00
21817;BME280;13247;47.504;7.382;2023-04-01T11:20:56;96399.31;;;11.28;100.00
21817;BME280;13247;47.504;7.382;2023-04-01T11:32:23;96391.38;;;11.80;100.00
21817;BME280;13247;47.504;7.382;2023-04-01T11:44:26;96380.66;;;12.18;100.00
21817;BME280;13247;47.504;7.382;2023-04-01T11:56:53;96368.94;;;12.40;100.00
21817;BME280;13247;47.504;7.382;2023-04-01T11:59:52;96365.81;;;12.17;100.00
21817;BME280;13247;47.504;7.382;2023-04-01T12:09:33;96365.78;;;12.34;100.00
21817;BME280;13247;47.504;7.382;2023-04-01T12:22:00;96379.13;;;12.14;100.00
21817;BME280;13247;47.504;7.382;2023-04-01T12:28:22;96373.03;;;12.13;100.00
21817;BME280;13247;47.504;7.382;2023-04-01T12:47:07;96373.22;;;12.26;100.00
21817;BME280;13247;47.504;7.382;2023-04-01T12:50:16;96393.38;;;12.10;100.00
21817;BME280;13247;47.504;7.382;2023-04-01T12:53:43;96418.13;;;11.71;100.00
21817;BME280;13247;47.504;7.382;2023-04-01T12:56:54;96433.34;;;11.29;100.00
21817;BME280;13247;47.504;7.382;2023-04-01T13:03:47;96425.25;;;10.61;100.00
21817;BME280;13247;47.504;7.382;2023-04-01T13:13:08;96414.31;;;11.07;100.00
21817;BME280;13247;47.504;7.382;2023-04-01T13:16:11;96427.47;;;11.24;100.00
21817;BME280;13247;47.504;7.382;2023-04-01T13:19:21;96442.03;;;11.13;100.00
21817;BME280;13247;47.504;7.382;2023-04-01T13:22:15;96447.00;;;10.81;100.00
21817;BME280;13247;47.504;7.382;2023-04-01T13:25:10;96442.94;;;10.37;100.00
21817;BME280;13247;47.504;7.382;2023-04-01T13:28:24;96416.50;;;10.23;100.00
21817;BME280;13247;47.504;7.382;2023-04-01T13:31:33;96405.69;;;10.31;100.00
21817;BME280;13247;47.504;7.382;2023-04-01T13:37:29;96404.63;;;10.72;100.00
21817;BME280;13247;47.504;7.382;2023-04-01T13:40:45;96398.47;;;10.73;100.00
21817;BME280;13247;47.504;7.382;2023-04-01T13:43:54;96392.94;;;10.79;100.00
21817;BME280;13247;47.504;7.382;2023-04-01T13:56:03;96380.25;;;11.93;100.00
21817;BME280;13247;47.504;7.382;2023-04-01T14:05:15;96402.00;;;12.29;100.00
21817;BME280;13247;47.504;7.382;2023-04-01T14:11:25;96392.63;;;11.91;100.00
21817;BME280;13247;47.504;7.382;2023-04-01T14:17:42;96413.28;;;11.45;100.00
21817;BME280;13247;47.504;7.382;2023-04-01T14:20:45;96420.69;;;11.01;100.00
21817;BME280;13247;47.504;7.382;2023-04-01T14:24:07;96425.13;;;10.64;100.00
21817;BME280;13247;47.504;7.382;2023-04-01T14:36:32;96367.56;;;10.61;100.00
21817;BME280;13247;47.504;7.382;2023-04-01T14:52:35;96345.16;;;12.42;100.00
21817;BME280;13247;47.504;7.382;2023-04-01T14:58:47;96346.75;;;13.68;100.00
21817;BME280;13247;47.504;7.382;2023-04-01T15:04:50;96338.94;;;13.80;100.00
21817;BME280;13247;47.504;7.382;2023-04-01T15:07:57;96347.53;;;13.54;100.00
21817;BME280;13247;47.504;7.382;2023-04-01T15:10:58;96344.84;;;13.56;100.00
21817;BME280;13247;47.504;7.382;2023-04-01T15:14:04;96357.03;;;13.27;100.00
21817;BME280;13247;47.504;7.382;2023-04-01T15:20:17;96360.03;;;12.74;100.00
21817;BME280;13247;47.504;7.382;2023-04-01T15:26:16;96364.13;;;12.64;100.00
21817;BME280;13247;47.504;7.382;2023-04-01T15:29:33;96359.88;;;12.77;100.00
21817;BME280;13247;47.504;7.382;2023-04-01T15:38:50;96355.38;;;12.79;99.25
21817;BME280;13247;47.504;7.382;2023-04-01T15:47:41;96355.38;;;12.79;95.42
21817;BME280;13247;47.504;7.382;2023-04-01T16:03:08;96388.13;;;12.58;100.00
21817;BME280;13247;47.504;7.382;2023-04-01T16:16:04;96375.25;;;12.69;100.00
21817;BME280;13247;47.504;7.382;2023-04-01T16:27:44;96368.69;;;13.07;100.00
21817;BME280;13247;47.504;7.382;2023-04-01T16:31:03;96368.38;;;13.13;100.00
21817;BME280;13247;47.504;7.382;2023-04-01T16:43:16;96387.22;;;13.21;100.00
21817;BME280;13247;47.504;7.382;2023-04-01T16:49:16;96381.69;;;13.10;100.00
21817;BME280;13247;47.504;7.382;2023-04-01T16:52:15;96388.75;;;12.94;100.00
21817;BME280;13247;47.504;7.382;2023-04-01T16:58:26;96412.03;;;13.17;100.00
21817;BME280;13247;47.504;7.382;2023-04-01T17:13:23;96426.25;;;11.84;100.00
21817;BME280;13247;47.504;7.382;2023-04-01T17:22:48;96416.25;;;12.08;100.00
21817;BME280;13247;47.504;7.382;2023-04-01T17:26:08;96419.19;;;12.02;100.00
21817;BME280;13247;47.504;7.382;2023-04-01T17:29:25;96413.47;;;11.94;100.00
21817;BME280;13247;47.504;7.382;2023-04-01T17:35:31;96426.59;;;11.76;100.00
21817;BME280;13247;47.504;7.382;2023-04-01T17:45:08;96461.44;;;11.63;100.00
21817;BME280;13247;47.504;7.382;2023-04-01T17:48:00;96463.63;;;11.18;100.00
21817;BME280;13247;47.504;7.382;2023-04-01T18:06:29;96450.16;;;10.32;100.00
21817;BME280;13247;47.504;7.382;2023-04-01T18:12:52;96465.66;;;9.76;100.00
21817;BME280;13247;47.504;7.382;2023-04-01T18:18:39;96465.41;;;9.82;100.00
21817;BME280;13247;47.504;7.382;2023-04-01T18:24:36;96477.72;;;9.80;100.00
21817;BME280;13247;47.504;7.382;2023-04-01T18:27:38;96519.03;;;9.52;100.00
21817;BME280;13247;47.504;7.382;2023-04-01T18:30:32;96518.78;;;9.58;100.00
21817;BME280;13247;47.504;7.382;2023-04-01T18:37:19;96512.88;;;9.95;100.00
21817;BME280;13247;47.504;7.382;2023-04-01T18:39:53;96524.63;;;10.06;100.00
21817;BME280;13247;47.504;7.382;2023-04-01T18:43:04;96524.00;;;9.80;100.00
21817;BME280;13247;47.504;7.382;2023-04-01T18:57:52;96531.84;;;10.21;100.00
21817;BME280;13247;47.504;7.382;2023-04-01T19:01:11;96526.38;;;10.06;100.00
21817;BME280;13247;47.504;7.382;2023-04-01T19:04:30;96527.31;;;10.25;100.00
21817;BME280;13247;47.504;7.382;2023-04-01T19:07:51;96530.94;;;10.22;100.00
21817;BME280;13247;47.504;7.382;2023-04-01T19:10:40;96530.91;;;10.02;100.00
21817;BME280;13247;47.504;7.382;2023-04-01T19:23:07;96535.81;;;9.68;100.00
21817;BME280;13247;47.504;7.382;2023-04-01T19:26:00;96538.25;;;9.51;100.00
21817;BME280;13247;47.504;7.382;2023-04-01T19:38:01;96549.94;;;8.75;100.00
21817;BME280;13247;47.504;7.382;2023-04-01T19:41:23;96551.00;;;8.46;100.00
21817;BME280;13247;47.504;7.382;2023-04-01T19:47:46;96550.75;;;9.00;100.00
21817;BME280;13247;47.504;7.382;2023-04-01T19:53:39;96548.53;;;8.89;100.00
21817;BME280;13247;47.504;7.382;2023-04-01T19:56:52;96549.75;;;9.04;100.00
21817;BME280;13247;47.504;7.382;2023-04-01T20:00:02;96566.44;;;8.77;100.00
21817;BME280;13247;47.504;7.382;2023-04-01T20:03:03;96556.44;;;8.64;100.00
21817;BME280;13247;47.504;7.382;2023-04-01T20:06:38;96545.47;;;8.78;100.00
21817;BME280;13247;47.504;7.382;2023-04-01T20:15:04;96559.34;;;8.55;100.00
21817;BME280;13247;47.504;7.382;2023-04-01T20:21:03;96577.41;;;8.63;100.00
21817;BME280;13247;47.504;7.382;2023-04-01T20:24:01;96569.84;;;8.79;100.00
21817;BME280;13247;47.504;7.382;2023-04-01T20:26:59;96582.88;;;8.80;100.00
21817;BME280;13247;47.504;7.382;2023-04-01T20:30:08;96597.97;;;8.72;100.00
21817;BME280;13247;47.504;7.382;2023-04-01T20:46:16;96604.84;;;8.98;100.00
21817;BME280;13247;47.504;7.382;2023-04-01T20:49:37;96606.88;;;9.14;100.00
21817;BME280;13247;47.504;7.382;2023-04-01T21:01:49;96618.72;;;9.23;100.00
21817;BME280;13247;47.504;7.382;2023-04-01T21:07:48;96631.13;;;9.41;100.00
21817;BME280;13247;47.504;7.382;2023-04-01T21:11:04;96638.41;;;9.33;100.00
21817;BME280;13247;47.504;7.382;2023-04-01T21:14:24;96634.25;;;9.27;100.00
21817;BME280;13247;47.504;7.382;2023-04-01T21:17:38;96628.22;;;9.25;100.00
21817;BME280;13247;47.504;7.382;2023-04-01T21:47:44;96642.22;;;8.77;100.00
21817;BME280;13247;47.504;7.382;2023-04-01T21:51:19;96638.63;;;8.81;100.00
21817;BME280;13247;47.504;7.382;2023-04-01T22:03:25;96646.94;;;8.67;100.00
21817;BME280;13247;47.504;7.382;2023-04-01T22:06:44;96646.13;;;8.65;100.00
21817;BME280;13247;47.504;7.382;2023-04-01T22:09:41;96646.34;;;8.59;100.00
21817;BME280;13247;47.504;7.382;2023-04-01T22:15:43;96655.84;;;8.61;100.00
21817;BME280;13247;47.504;7.382;2023-04-01T22:21:52;96668.56;;;8.72;100.00
21817;BME280;13247;47.504;7.382;2023-04-01T22:25:03;96656.97;;;8.54;100.00
21817;BME280;13247;47.504;7.382;2023-04-01T22:27:55;96661.59;;;8.46;100.00
21817;BME280;13247;47.504;7.382;2023-04-01T22:30:52;96659.13;;;8.42;100.00
21817;BME280;13247;47.504;7.382;2023-04-01T22:39:51;96673.75;;;8.47;100.00
21817;BME280;13247;47.504;7.382;2023-04-01T22:42:47;96675.50;;;8.47;100.00
21817;BME280;13247;47.504;7.382;2023-04-01T22:48:36;96673.28;;;8.35;100.00
21817;BME280;13247;47.504;7.382;2023-04-01T22:51:40;96678.78;;;8.27;100.00
21817;BME280;13247;47.504;7.382;2023-04-01T22:54:44;96676.84;;;8.34;100.00
21817;BME280;13247;47.504;7.382;2023-04-01T22:57:42;96681.94;;;8.37;100.00
21817;BME280;13247;47.504;7.382;2023-04-01T23:00:56;96683.88;;;8.30;100.00
21817;BME280;13247;47.504;7.382;2023-04-01T23:03:45;96679.31;;;8.37;100.00
21817;BME280;13247;47.504;7.382;2023-04-01T23:06:39;96680.97;;;8.39;100.00
21817;BME280;13247;47.504;7.382;2023-04-01T23:09:33;96683.88;;;8.56;100.00
21817;BME280;13247;47.504;7.382;2023-04-01T23:12:20;96682.78;;;8.63;100.00
21817;BME280;13247;47.504;7.382;2023-04-01T23:15:10;96700.16;;;8.64;100.00
21817;BME280;13247;47.504;7.382;2023-04-01T23:18:19;96696.44;;;8.72;100.00
21817;BME280;13247;47.504;7.382;2023-04-01T23:26:59;96697.00;;;9.04;100.00
21817;BME280;13247;47.504;7.382;2023-04-01T23:29:45;96699.69;;;9.03;100.00
21817;BME280;13247;47.504;7.382;2023-04-01T23:32:30;96694.44;;;9.03;100.00
21817;BME280;13247;47.504;7.382;2023-04-01T23:35:17;96700.41;;;9.06;100.00
21817;BME280;13247;47.504;7.382;2023-04-01T23:38:01;96698.28;;;9.17;100.00
21817;BME280;13247;47.504;7.382;2023-04-01T23:40:51;96704.25;;;9.21;100.00
21817;BME280;13247;47.504;7.382;2023-04-01T23:43:40;96698.06;;;9.23;100.00
21817;BME280;13247;47.504;7.382;2023-04-01T23:46:28;96698.13;;;9.22;100.00
21817;BME280;13247;47.504;7.382;2023-04-01T23:49:21;96705.47;;;9.35;100.00
21817;BME280;13247;47.504;7.382;2023-04-01T23:55:23;96704.63;;;9.35;100.00
